createdAt,value
2023-01-11T00:03:19.021Z,100685.89
2023-01-11T00:07:27.401Z,100678.30
2023-01-11T00:11:35.374Z,100677.36
2023-01-11T00:15:43.140Z,100676.60
2023-01-11T00:19:51.147Z,100673.62
2023-01-11T00:23:58.658Z,100670.12
2023-01-11T00:28:07.534Z,100671.38
2023-01-11T00:32:15.259Z,100667.02
2023-01-11T00:36:23.065Z,100665.98
2023-01-11T00:40:30.790Z,100663.70
2023-01-11T00:44:55.800Z,100672.58
2023-01-11T00:49:04.506Z,100674.95
2023-01-11T00:53:14.858Z,100677.66
2023-01-11T00:57:22.438Z,100676.54
2023-01-11T01:01:30.291Z,100671.23
2023-01-11T01:05:41.045Z,100669.81
2023-01-11T01:09:49.069Z,100661.26
2023-01-11T01:14:13.860Z,100663.92
2023-01-11T01:18:22.467Z,100664.96
2023-01-11T01:22:30.677Z,100663.69
2023-01-11T01:26:39.179Z,100657.15
2023-01-11T01:30:51.166Z,100652.48
2023-01-11T01:34:58.663Z,100650.44
2023-01-11T01:39:08.130Z,100648.58
2023-01-11T01:43:16.810Z,100646.17
2023-01-11T01:47:28.278Z,100644.36
2023-01-11T01:51:40.095Z,100646.54
2023-01-11T01:55:51.005Z,100643.43
2023-01-11T02:00:02.332Z,100628.40
2023-01-11T02:04:14.435Z,100622.95
2023-01-11T02:08:28.495Z,100618.55
2023-01-11T02:12:40.699Z,100611.39
2023-01-11T02:16:48.505Z,100606.20
2023-01-11T02:21:10.205Z,100600.27
2023-01-11T02:25:44.296Z,100590.52
2023-01-11T02:30:01.940Z,100585.30
2023-01-11T02:34:28.337Z,100583.26
2023-01-11T02:38:43.576Z,100574.37
2023-01-11T02:43:12.278Z,100569.27
2023-01-11T02:47:23.596Z,100564.52
2023-01-11T02:51:37.174Z,100567.27
2023-01-11T02:55:48.674Z,100566.39
2023-01-11T02:59:59.246Z,100564.14
2023-01-11T03:04:07.217Z,100562.48
2023-01-11T03:08:38.204Z,100558.00
2023-01-11T03:12:56.949Z,100558.94
2023-01-11T03:17:10.644Z,100556.32
2023-01-11T03:21:28.900Z,100552.66
2023-01-11T03:25:45.085Z,100549.66
2023-01-11T03:29:55.855Z,100543.03
2023-01-11T03:34:08.232Z,100528.52
2023-01-11T03:38:19.646Z,100522.42
2023-01-11T03:42:29.507Z,100520.36
2023-01-11T03:46:40.063Z,100514.11
2023-01-11T03:50:48.246Z,100508.71
2023-01-11T03:54:59.710Z,100503.26
2023-01-11T03:59:07.776Z,100491.55
2023-01-11T04:03:15.452Z,100490.12
2023-01-11T04:07:23.526Z,100491.15
2023-01-11T04:11:31.450Z,100489.07
2023-01-11T04:15:39.448Z,100486.31
2023-01-11T04:19:47.166Z,100485.30
2023-01-11T04:23:54.786Z,100481.49
2023-01-11T04:28:02.936Z,100475.05
2023-01-11T04:32:10.914Z,100470.13
2023-01-11T04:36:19.607Z,100464.86
2023-01-11T04:40:30.259Z,100455.55
2023-01-11T04:44:37.853Z,100452.21
2023-01-11T04:48:45.939Z,100451.04
2023-01-11T04:52:54.255Z,100446.70
2023-01-11T04:57:02.339Z,100439.77
2023-01-11T05:01:15.632Z,100429.81
2023-01-11T05:05:23.393Z,100423.63
2023-01-11T05:09:30.742Z,100417.27
2023-01-11T05:13:43.846Z,100406.92
2023-01-11T05:17:51.403Z,100404.30
2023-01-11T05:21:59.004Z,100393.12
2023-01-11T05:26:08.941Z,100390.20
2023-01-11T05:30:17.859Z,100390.60
2023-01-11T05:34:26.691Z,100393.92
2023-01-11T05:38:35.214Z,100396.50
2023-01-11T05:42:42.986Z,100403.83
2023-01-11T05:46:50.841Z,100405.73
2023-01-11T05:51:01.474Z,100404.89
2023-01-11T05:55:12.653Z,100399.16
2023-01-11T05:59:20.643Z,100399.05
2023-01-11T06:03:28.931Z,100400.67
2023-01-11T06:07:36.322Z,100399.80
2023-01-11T06:11:43.547Z,100392.77
2023-01-11T06:15:51.089Z,100384.34
2023-01-11T06:19:58.231Z,100377.68
2023-01-11T06:24:06.170Z,100375.40
2023-01-11T06:28:14.774Z,100374.70
2023-01-11T06:32:22.448Z,100362.68
2023-01-11T06:36:30.871Z,100345.56
2023-01-11T06:40:39.131Z,100343.95
2023-01-11T06:44:47.232Z,100344.42
2023-01-11T06:48:55.298Z,100341.23
2023-01-11T06:53:03.250Z,100341.20
2023-01-11T06:57:10.663Z,100337.52
2023-01-11T07:01:18.030Z,100330.67
2023-01-11T07:05:25.472Z,100332.06
2023-01-11T07:09:32.894Z,100337.27
2023-01-11T07:13:41.418Z,100336.68
2023-01-11T07:17:49.973Z,100332.56
2023-01-11T07:21:57.321Z,100328.61
2023-01-11T07:26:05.505Z,100331.63
2023-01-11T07:30:14.844Z,100329.38
2023-01-11T07:34:24.963Z,100323.82
2023-01-11T07:38:32.555Z,100324.54
2023-01-11T07:42:58.051Z,100321.05
2023-01-11T07:47:06.285Z,100318.55
2023-01-11T07:51:14.219Z,100322.73
2023-01-11T07:55:22.182Z,100323.75
2023-01-11T07:59:30.885Z,100321.64
2023-01-11T08:03:39.216Z,100323.09
2023-01-11T08:07:47.016Z,100318.12
2023-01-11T08:12:11.957Z,100319.83
2023-01-11T08:16:20.579Z,100320.02
2023-01-11T08:20:29.146Z,100318.11
2023-01-11T08:24:36.519Z,100314.38
2023-01-11T08:28:44.158Z,100310.77
2023-01-11T08:32:52.241Z,100314.66
2023-01-11T08:37:02.307Z,100314.80
2023-01-11T08:41:11.974Z,100316.41
2023-01-11T08:45:19.559Z,100312.80
2023-01-11T08:49:27.594Z,100314.96
2023-01-11T08:53:37.997Z,100316.56
2023-01-11T08:57:46.263Z,100310.46
2023-01-11T09:01:53.726Z,100306.56
2023-01-11T09:06:01.527Z,100307.29
2023-01-11T09:10:11.205Z,100307.96
2023-01-11T09:14:20.964Z,100308.27
2023-01-11T09:18:28.939Z,100305.15
2023-01-11T09:22:38.125Z,100303.30
2023-01-11T09:26:45.937Z,100298.35
2023-01-11T09:30:56.134Z,100290.07
2023-01-11T09:35:04.870Z,100275.69
2023-01-11T09:39:16.040Z,100268.48
2023-01-11T09:43:27.376Z,100258.99
2023-01-11T09:47:41.059Z,100255.29
2023-01-11T09:51:53.259Z,100256.48
2023-01-11T09:56:05.677Z,100253.65
2023-01-11T10:00:33.269Z,100247.70
2023-01-11T10:04:48.688Z,100242.67
2023-01-11T10:18:48.804Z,100229.77
2023-01-11T10:22:54.867Z,100223.75
2023-01-11T10:27:06.078Z,100222.38
2023-01-11T10:31:29.987Z,100210.84
2023-01-11T10:36:13.808Z,100201.69
2023-01-11T10:40:59.232Z,100188.83
2023-01-11T10:45:14.020Z,100185.35
2023-01-11T10:49:36.266Z,100177.94
2023-01-11T10:53:50.372Z,100163.92
2023-01-11T10:58:04.430Z,100156.92
2023-01-11T11:02:21.403Z,100150.61
2023-01-11T11:06:39.144Z,100141.02
2023-01-11T11:10:51.807Z,100128.11
2023-01-11T11:15:04.368Z,100116.66
2023-01-11T11:19:22.825Z,100118.35
2023-01-11T11:23:31.711Z,100106.48
2023-01-11T11:27:41.832Z,100105.46
2023-01-11T11:31:51.687Z,100098.63
2023-01-11T11:36:02.333Z,100089.90
2023-01-11T11:40:31.254Z,100082.38
2023-01-11T11:44:38.796Z,100076.64
2023-01-11T11:48:55.040Z,100065.81
2023-01-11T11:53:06.916Z,100060.61
2023-01-11T11:57:22.154Z,100055.16
2023-01-11T12:01:32.650Z,100058.54
2023-01-11T12:05:51.903Z,100062.16
2023-01-11T12:10:02.564Z,100070.52
2023-01-11T12:14:22.961Z,100070.84
2023-01-11T12:18:33.783Z,100067.70
2023-01-11T12:22:44.857Z,100059.94
2023-01-11T12:27:02.037Z,100053.20
2023-01-11T12:31:14.463Z,100048.55
2023-01-11T12:35:40.633Z,100042.02
2023-01-11T12:39:54.273Z,100034.23
2023-01-11T12:44:07.960Z,100034.67
2023-01-11T12:48:44.095Z,100024.83
2023-01-11T12:53:01.330Z,100026.11
2023-01-11T12:57:19.057Z,100028.28
2023-01-11T13:01:38.751Z,100022.41
2023-01-11T13:05:56.665Z,100019.59
2023-01-11T13:10:17.023Z,100008.48
2023-01-11T13:14:38.450Z,100002.29
2023-01-11T13:18:49.162Z,99995.67
2023-01-11T13:23:05.051Z,99991.23
2023-01-11T13:27:21.241Z,99982.77
2023-01-11T13:31:31.366Z,99978.94
2023-01-11T13:35:47.495Z,99986.27
2023-01-11T13:40:01.888Z,99983.31
2023-01-11T13:44:16.916Z,99971.66
2023-01-11T13:48:30.042Z,99975.84
2023-01-11T13:52:54.880Z,99972.64
2023-01-11T13:57:04.933Z,99966.00
2023-01-11T14:01:15.531Z,99964.71
2023-01-11T14:05:24.990Z,99970.93
2023-01-11T14:10:04.851Z,99969.76
2023-01-11T14:14:37.426Z,99975.86
2023-01-11T14:18:49.549Z,99974.74
2023-01-11T14:23:02.803Z,99961.61
2023-01-11T14:27:42.725Z,99956.60
2023-01-11T14:32:29.077Z,99956.77
2023-01-11T14:37:01.226Z,99952.67
2023-01-11T14:41:35.369Z,99948.49
2023-01-11T14:45:55.930Z,99949.98
2023-01-11T14:50:14.273Z,99952.84
2023-01-11T14:54:25.420Z,99948.08
2023-01-11T14:58:33.867Z,99940.38
2023-01-11T15:02:42.128Z,99940.63
2023-01-11T15:06:56.664Z,99931.20
2023-01-11T15:11:06.274Z,99930.48
2023-01-11T15:15:21.484Z,99931.02
2023-01-11T15:19:33.758Z,99933.90
2023-01-11T15:23:50.106Z,99931.65
2023-01-11T15:27:58.554Z,99936.50
2023-01-11T15:32:18.576Z,99939.14
2023-01-11T15:36:28.168Z,99944.29
2023-01-11T15:40:41.259Z,99943.14
2023-01-11T15:45:08.154Z,99940.63
2023-01-11T15:49:39.625Z,99943.80
2023-01-11T15:54:23.000Z,99951.16
2023-01-11T15:59:06.780Z,99955.02
2023-01-11T16:03:33.254Z,99957.87
2023-01-11T16:07:44.648Z,99963.21
2023-01-11T16:12:00.631Z,99957.82
2023-01-11T16:16:15.529Z,99953.98
2023-01-11T16:20:28.199Z,99948.56
2023-01-11T16:24:43.913Z,99943.23
2023-01-11T16:28:53.546Z,99943.90
2023-01-11T16:33:18.520Z,99947.64
2023-01-11T16:37:35.534Z,99950.67
2023-01-11T16:41:45.889Z,99954.48
2023-01-11T16:45:57.933Z,99951.81
2023-01-11T16:50:25.321Z,99945.34
2023-01-11T16:54:34.919Z,99944.80
2023-01-11T16:58:43.550Z,99946.81
2023-01-11T17:02:51.687Z,99948.80
2023-01-11T17:06:59.911Z,99950.86
2023-01-11T17:11:27.414Z,99949.45
2023-01-11T17:15:43.989Z,99946.26
2023-01-11T17:19:54.591Z,99947.65
2023-01-11T17:24:05.748Z,99953.56
2023-01-11T17:28:19.108Z,99956.42
2023-01-11T17:32:34.420Z,99952.88
2023-01-11T17:36:42.529Z,99948.59
2023-01-11T17:40:51.388Z,99947.05
2023-01-11T17:45:14.890Z,99942.10
2023-01-11T17:49:24.881Z,99941.42
2023-01-11T17:53:34.175Z,99947.17
2023-01-11T17:57:42.540Z,99945.45
2023-01-11T18:01:51.959Z,99947.60
2023-01-11T18:06:00.876Z,99947.02
2023-01-11T18:10:21.957Z,99946.84
2023-01-11T18:14:31.917Z,99945.65
2023-01-11T18:18:45.235Z,99942.94
2023-01-11T18:23:05.245Z,99947.44
2023-01-11T18:27:28.027Z,99948.01
2023-01-11T18:31:36.513Z,99957.26
2023-01-11T18:35:47.276Z,99966.11
2023-01-11T18:39:55.537Z,99967.66
2023-01-11T18:44:05.092Z,99975.80
2023-01-11T18:48:15.331Z,99976.30
2023-01-11T18:52:25.626Z,99975.83
2023-01-11T18:56:33.260Z,99976.83
2023-01-11T19:00:42.692Z,99986.03
2023-01-11T19:04:50.407Z,99992.02
2023-01-11T19:08:58.284Z,100000.30
2023-01-11T19:13:06.074Z,100003.41
2023-01-11T19:17:15.241Z,100013.81
2023-01-11T19:21:23.470Z,100014.91
2023-01-11T19:25:31.713Z,100018.85
2023-01-11T19:29:39.680Z,100018.96
2023-01-11T19:33:47.785Z,100020.29
2023-01-11T19:37:56.296Z,100021.55
2023-01-11T19:42:04.770Z,100028.61
2023-01-11T19:46:13.601Z,100033.95
2023-01-11T19:50:21.540Z,100040.63
2023-01-11T19:54:30.616Z,100037.83
2023-01-11T19:58:39.865Z,100038.23
2023-01-11T20:02:47.877Z,100044.66
2023-01-11T20:06:56.962Z,100047.65
2023-01-11T20:11:09.337Z,100052.35
2023-01-11T20:15:17.912Z,100052.30
2023-01-11T20:19:26.190Z,100056.86
2023-01-11T20:23:35.245Z,100056.67
2023-01-11T20:27:43.239Z,100063.23
2023-01-11T20:31:51.060Z,100073.44
2023-01-11T20:35:59.823Z,100076.17
2023-01-11T20:40:09.091Z,100080.18
2023-01-11T20:44:18.944Z,100081.56
2023-01-11T20:48:26.788Z,100084.09
2023-01-11T20:52:34.570Z,100085.67
2023-01-11T20:56:42.229Z,100089.62
2023-01-11T21:00:49.711Z,100091.52
2023-01-11T21:04:57.868Z,100093.09
2023-01-11T21:09:07.009Z,100094.09
2023-01-11T21:13:14.696Z,100094.06
2023-01-11T21:17:22.656Z,100092.79
2023-01-11T21:21:34.175Z,100097.12
2023-01-11T21:25:42.530Z,100097.23
2023-01-11T21:29:50.711Z,100099.67
2023-01-11T21:33:59.133Z,100108.11
2023-01-11T21:38:08.238Z,100106.45
2023-01-11T21:42:16.354Z,100103.05
2023-01-11T21:46:23.978Z,100105.90
2023-01-11T21:50:31.727Z,100107.86
2023-01-11T21:54:39.442Z,100107.17
2023-01-11T21:58:47.499Z,100114.91
2023-01-11T22:02:55.182Z,100123.27
2023-01-11T22:07:03.166Z,100124.52
2023-01-11T22:11:11.256Z,100130.58
2023-01-11T22:15:19.255Z,100129.49
2023-01-11T22:19:27.364Z,100128.28
2023-01-11T22:23:35.535Z,100130.91
2023-01-11T22:27:43.369Z,100132.91
2023-01-11T22:31:55.494Z,100137.53
2023-01-11T22:36:04.625Z,100141.20
2023-01-11T22:40:15.271Z,100148.14
2023-01-11T22:44:23.470Z,100148.52
2023-01-11T22:48:32.173Z,100154.27
2023-01-11T22:52:40.567Z,100156.80
2023-01-11T22:56:47.909Z,100157.96
2023-01-11T23:00:55.555Z,100155.57
2023-01-11T23:05:02.773Z,100154.98
2023-01-11T23:09:15.466Z,100156.97
2023-01-11T23:13:41.428Z,100159.39
2023-01-11T23:17:51.371Z,100160.02
2023-01-11T23:21:58.643Z,100154.80
2023-01-11T23:26:07.313Z,100156.52
2023-01-11T23:30:15.692Z,100154.33
2023-01-11T23:34:23.271Z,100156.45
2023-01-11T23:38:34.407Z,100157.91
2023-01-11T23:42:42.165Z,100159.01
2023-01-11T23:47:07.371Z,100164.89
2023-01-11T23:51:15.013Z,100163.83
2023-01-11T23:55:22.360Z,100169.17
2023-01-11T23:59:30.341Z,100180.83
